sensor_id;sensor_type;location;lat;lon;timestamp;pressure;altitude;pressure_sealevel;temperature
19196;BMP280;9730;48.926;11.376;2023-04-09T00:02:20;97699.66;;;4.20
19196;BMP280;9730;48.926;11.376;2023-04-09T00:04:49;97702.16;;;4.20
19196;BMP280;9730;48.926;11.376;2023-04-09T00:07:16;97709.59;;;4.23
19196;BMP280;9730;48.926;11.376;2023-04-09T00:09:44;97705.38;;;4.26
19196;BMP280;9730;48.926;11.376;2023-04-09T00:12:11;97714.56;;;4.23
19196;BMP280;9730;48.926;11.376;2023-04-09T00:14:39;97712.97;;;4.22
19196;BMP280;9730;48.926;11.376;2023-04-09T00:17:07;97719.00;;;4.09
19196;BMP280;9730;48.926;11.376;2023-04-09T00:19:34;97721.44;;;4.14
19196;BMP280;9730;48.926;11.376;2023-04-09T00:22:03;97726.47;;;4.12
19196;BMP280;9730;48.926;11.376;2023-04-09T00:24:31;97724.78;;;4.13
19196;BMP280;9730;48.926;11.376;2023-04-09T00:26:58;97736.53;;;4.06
19196;BMP280;9730;48.926;11.376;2023-04-09T00:29:26;97732.53;;;3.98
19196;BMP280;9730;48.926;11.376;2023-04-09T00:31:54;97734.88;;;4.05
19196;BMP280;9730;48.926;11.376;2023-04-09T00:34:21;97734.84;;;4.08
19196;BMP280;9730;48.926;11.376;2023-04-09T00:36:49;97744.47;;;3.81
19196;BMP280;9730;48.926;11.376;2023-04-09T00:39:18;97739.19;;;3.97
19196;BMP280;9730;48.926;11.376;2023-04-09T00:41:46;97744.84;;;4.05
19196;BMP280;9730;48.926;11.376;2023-04-09T00:44:13;97739.22;;;3.96
19196;BMP280;9730;48.926;11.376;2023-04-09T00:46:41;97746.88;;;3.85
19196;BMP280;9730;48.926;11.376;2023-04-09T00:49:09;97736.69;;;3.97
19196;BMP280;9730;48.926;11.376;2023-04-09T00:51:37;97735.88;;;3.95
19196;BMP280;9730;48.926;11.376;2023-04-09T00:54:05;97727.25;;;4.14
19196;BMP280;9730;48.926;11.376;2023-04-09T00:56:35;97736.50;;;4.08
19196;BMP280;9730;48.926;11.376;2023-04-09T00:59:03;97735.56;;;4.13
19196;BMP280;9730;48.926;11.376;2023-04-09T01:01:31;97735.66;;;4.09
19196;BMP280;9730;48.926;11.376;2023-04-09T01:03:59;97739.84;;;4.08
19196;BMP280;9730;48.926;11.376;2023-04-09T01:06:34;97739.94;;;4.02
19196;BMP280;9730;48.926;11.376;2023-04-09T01:09:11;97739.13;;;4.02
19196;BMP280;9730;48.926;11.376;2023-04-09T01:11:46;97737.03;;;3.78
19196;BMP280;9730;48.926;11.376;2023-04-09T01:14:23;97735.56;;;3.64
19196;BMP280;9730;48.926;11.376;2023-04-09T01:16:57;97728.50;;;3.89
19196;BMP280;9730;48.926;11.376;2023-04-09T01:19:38;97719.31;;;3.91
19196;BMP280;9730;48.926;11.376;2023-04-09T01:22:18;97725.94;;;3.94
19196;BMP280;9730;48.926;11.376;2023-04-09T01:24:59;97721.75;;;3.96
19196;BMP280;9730;48.926;11.376;2023-04-09T01:27:43;97731.16;;;3.79
19196;BMP280;9730;48.926;11.376;2023-04-09T01:30:14;97726.25;;;3.74
19196;BMP280;9730;48.926;11.376;2023-04-09T01:32:43;97720.22;;;3.86
19196;BMP280;9730;48.926;11.376;2023-04-09T01:35:11;97726.19;;;3.80
19196;BMP280;9730;48.926;11.376;2023-04-09T01:37:40;97725.22;;;3.87
19196;BMP280;9730;48.926;11.376;2023-04-09T01:40:09;97736.84;;;3.88
19196;BMP280;9730;48.926;11.376;2023-04-09T01:42:38;97726.72;;;3.97
19196;BMP280;9730;48.926;11.376;2023-04-09T01:45:07;97730.75;;;4.04
19196;BMP280;9730;48.926;11.376;2023-04-09T01:47:38;97733.34;;;3.97
19196;BMP280;9730;48.926;11.376;2023-04-09T01:50:07;97733.81;;;3.70
19196;BMP280;9730;48.926;11.376;2023-04-09T01:52:35;97731.50;;;3.58
19196;BMP280;9730;48.926;11.376;2023-04-09T01:55:03;97727.84;;;3.78
19196;BMP280;9730;48.926;11.376;2023-04-09T01:57:31;97722.72;;;3.87
19196;BMP280;9730;48.926;11.376;2023-04-09T01:59:59;97729.59;;;3.75
19196;BMP280;9730;48.926;11.376;2023-04-09T02:02:31;97734.59;;;3.75
19196;BMP280;9730;48.926;11.376;2023-04-09T02:05:06;97741.16;;;3.79
19196;BMP280;9730;48.926;11.376;2023-04-09T02:07:38;97728.44;;;3.94
19196;BMP280;9730;48.926;11.376;2023-04-09T02:10:07;97738.38;;;3.95
19196;BMP280;9730;48.926;11.376;2023-04-09T02:12:38;97731.75;;;3.94
19196;BMP280;9730;48.926;11.376;2023-04-09T02:15:07;97736.66;;;3.99
19196;BMP280;9730;48.926;11.376;2023-04-09T02:17:35;97753.53;;;3.86
19196;BMP280;9730;48.926;11.376;2023-04-09T02:20:06;97756.03;;;3.85
19196;BMP280;9730;48.926;11.376;2023-04-09T02:22:34;97751.16;;;3.77
19196;BMP280;9730;48.926;11.376;2023-04-09T02:25:01;97759.47;;;3.78
19196;BMP280;9730;48.926;11.376;2023-04-09T02:27:29;97753.56;;;3.83
19196;BMP280;9730;48.926;11.376;2023-04-09T02:29:57;97759.31;;;3.88
19196;BMP280;9730;48.926;11.376;2023-04-09T02:32:24;97767.84;;;3.75
19196;BMP280;9730;48.926;11.376;2023-04-09T02:34:52;97768.69;;;3.73
19196;BMP280;9730;48.926;11.376;2023-04-09T02:37:21;97763.72;;;3.73
19196;BMP280;9730;48.926;11.376;2023-04-09T02:39:49;97762.41;;;3.50
19196;BMP280;9730;48.926;11.376;2023-04-09T02:42:16;97766.63;;;3.46
19196;BMP280;9730;48.926;11.376;2023-04-09T02:44:45;97769.34;;;3.30
19196;BMP280;9730;48.926;11.376;2023-04-09T02:47:13;97765.50;;;3.07
19196;BMP280;9730;48.926;11.376;2023-04-09T02:49:40;97752.16;;;3.12
19196;BMP280;9730;48.926;11.376;2023-04-09T02:52:09;97745.19;;;3.33
19196;BMP280;9730;48.926;11.376;2023-04-09T02:54:38;97742.66;;;3.38
19196;BMP280;9730;48.926;11.376;2023-04-09T02:57:05;97759.03;;;3.54
19196;BMP280;9730;48.926;11.376;2023-04-09T02:59:33;97764.00;;;3.54
19196;BMP280;9730;48.926;11.376;2023-04-09T03:02:01;97773.31;;;3.43
19196;BMP280;9730;48.926;11.376;2023-04-09T03:04:29;97766.06;;;3.26
19196;BMP280;9730;48.926;11.376;2023-04-09T03:06:56;97779.91;;;2.85
19196;BMP280;9730;48.926;11.376;2023-04-09T03:09:24;97774.19;;;2.77
19196;BMP280;9730;48.926;11.376;2023-04-09T03:11:53;97760.88;;;2.78
19196;BMP280;9730;48.926;11.376;2023-04-09T03:14:21;97759.41;;;2.63
19196;BMP280;9730;48.926;11.376;2023-04-09T03:16:49;97761.91;;;2.63
19196;BMP280;9730;48.926;11.376;2023-04-09T03:19:17;97756.13;;;2.58
19196;BMP280;9730;48.926;11.376;2023-04-09T03:21:44;97761.13;;;2.56
19196;BMP280;9730;48.926;11.376;2023-04-09T03:24:15;97767.06;;;2.45
19196;BMP280;9730;48.926;11.376;2023-04-09T03:26:43;97754.63;;;2.46
19196;BMP280;9730;48.926;11.376;2023-04-09T03:29:14;97756.44;;;2.32
19196;BMP280;9730;48.926;11.376;2023-04-09T03:31:42;97754.03;;;2.25
19196;BMP280;9730;48.926;11.376;2023-04-09T03:34:10;97754.22;;;2.03
19196;BMP280;9730;48.926;11.376;2023-04-09T03:36:38;97753.50;;;1.89
19196;BMP280;9730;48.926;11.376;2023-04-09T03:39:14;97741.03;;;1.96
19196;BMP280;9730;48.926;11.376;2023-04-09T03:41:42;97733.47;;;2.05
19196;BMP280;9730;48.926;11.376;2023-04-09T03:44:15;97724.09;;;2.29
19196;BMP280;9730;48.926;11.376;2023-04-09T03:47:08;97725.25;;;1.97
19196;BMP280;9730;48.926;11.376;2023-04-09T03:49:37;97718.50;;;2.10
19196;BMP280;9730;48.926;11.376;2023-04-09T03:52:17;97713.41;;;2.20
19196;BMP280;9730;48.926;11.376;2023-04-09T03:54:52;97716.00;;;2.08
19196;BMP280;9730;48.926;11.376;2023-04-09T03:57:23;97704.25;;;2.23
19196;BMP280;9730;48.926;11.376;2023-04-09T03:59:53;97699.09;;;2.37
19196;BMP280;9730;48.926;11.376;2023-04-09T04:02:22;97696.56;;;2.44
19196;BMP280;9730;48.926;11.376;2023-04-09T04:04:59;97684.88;;;2.48
19196;BMP280;9730;48.926;11.376;2023-04-09T04:07:31;97687.13;;;2.65
19196;BMP280;9730;48.926;11.376;2023-04-09T04:10:08;97683.41;;;2.32
19196;BMP280;9730;48.926;11.376;2023-04-09T04:12:41;97678.69;;;2.11
19196;BMP280;9730;48.926;11.376;2023-04-09T04:15:22;97663.94;;;1.92
19196;BMP280;9730;48.926;11.376;2023-04-09T04:17:53;97649.91;;;1.86
19196;BMP280;9730;48.926;11.376;2023-04-09T04:20:36;97642.56;;;1.74
19196;BMP280;9730;48.926;11.376;2023-04-09T04:23:08;97636.00;;;1.66
19196;BMP280;9730;48.926;11.376;2023-04-09T04:25:43;97614.47;;;1.65
19196;BMP280;9730;48.926;11.376;2023-04-09T04:28:14;97596.13;;;1.73
19196;BMP280;9730;48.926;11.376;2023-04-09T04:30:43;97592.03;;;1.72
19196;BMP280;9730;48.926;11.376;2023-04-09T04:33:11;97586.31;;;1.63
19196;BMP280;9730;48.926;11.376;2023-04-09T04:35:47;97570.56;;;1.61
19196;BMP280;9730;48.926;11.376;2023-04-09T04:38:53;97556.44;;;1.64
19196;BMP280;9730;48.926;11.376;2023-04-09T04:41:29;97546.63;;;1.53
19196;BMP280;9730;48.926;11.376;2023-04-09T04:44:23;97534.13;;;1.61
19196;BMP280;9730;48.926;11.376;2023-04-09T04:46:59;97534.81;;;1.71
19196;BMP280;9730;48.926;11.376;2023-04-09T04:49:26;97521.25;;;1.94
19196;BMP280;9730;48.926;11.376;2023-04-09T04:51:54;97514.44;;;2.11
19196;BMP280;9730;48.926;11.376;2023-04-09T04:54:22;97497.94;;;2.03
19196;BMP280;9730;48.926;11.376;2023-04-09T04:56:54;97493.88;;;1.97
19196;BMP280;9730;48.926;11.376;2023-04-09T04:59:39;97476.47;;;1.96
19196;BMP280;9730;48.926;11.376;2023-04-09T05:02:10;97474.97;;;1.84
19196;BMP280;9730;48.926;11.376;2023-04-09T05:04:58;97461.44;;;2.03
19196;BMP280;9730;48.926;11.376;2023-04-09T05:07:33;97475.81;;;1.82
19196;BMP280;9730;48.926;11.376;2023-04-09T05:10:01;97476.88;;;1.64
19196;BMP280;9730;48.926;11.376;2023-04-09T05:12:36;97467.13;;;1.48
19196;BMP280;9730;48.926;11.376;2023-04-09T05:15:05;97457.06;;;1.57
19196;BMP280;9730;48.926;11.376;2023-04-09T05:17:36;97453.44;;;1.80
19196;BMP280;9730;48.926;11.376;2023-04-09T05:20:06;97452.19;;;2.14
19196;BMP280;9730;48.926;11.376;2023-04-09T05:22:45;97448.31;;;1.92
19196;BMP280;9730;48.926;11.376;2023-04-09T05:25:13;97448.03;;;2.13
19196;BMP280;9730;48.926;11.376;2023-04-09T05:27:41;97456.28;;;2.16
19196;BMP280;9730;48.926;11.376;2023-04-09T05:30:10;97450.66;;;2.04
19196;BMP280;9730;48.926;11.376;2023-04-09T05:32:40;97446.38;;;2.12
19196;BMP280;9730;48.926;11.376;2023-04-09T05:35:08;97448.94;;;2.08
19196;BMP280;9730;48.926;11.376;2023-04-09T05:37:39;97457.94;;;2.16
19196;BMP280;9730;48.926;11.376;2023-04-09T05:40:08;97459.34;;;2.33
19196;BMP280;9730;48.926;11.376;2023-04-09T05:42:35;97461.75;;;2.38
19196;BMP280;9730;48.926;11.376;2023-04-09T05:45:23;97475.84;;;2.40
19196;BMP280;9730;48.926;11.376;2023-04-09T05:47:53;97494.97;;;2.37
19196;BMP280;9730;48.926;11.376;2023-04-09T05:50:22;97513.59;;;2.10
19196;BMP280;9730;48.926;11.376;2023-04-09T05:52:52;97523.28;;;1.65
19196;BMP280;9730;48.926;11.376;2023-04-09T05:55:25;97519.06;;;1.70
19196;BMP280;9730;48.926;11.376;2023-04-09T05:57:57;97505.63;;;1.86
19196;BMP280;9730;48.926;11.376;2023-04-09T06:00:25;97501.31;;;2.00
19196;BMP280;9730;48.926;11.376;2023-04-09T06:02:54;97495.94;;;2.27
19196;BMP280;9730;48.926;11.376;2023-04-09T06:05:22;97506.66;;;2.33
19196;BMP280;9730;48.926;11.376;2023-04-09T06:07:50;97505.34;;;2.64
19196;BMP280;9730;48.926;11.376;2023-04-09T06:10:17;97523.97;;;2.41
19196;BMP280;9730;48.926;11.376;2023-04-09T06:12:46;97517.81;;;2.64
19196;BMP280;9730;48.926;11.376;2023-04-09T06:15:15;97543.75;;;2.51
19196;BMP280;9730;48.926;11.376;2023-04-09T06:17:44;97550.53;;;2.94
19196;BMP280;9730;48.926;11.376;2023-04-09T06:20:13;97566.34;;;2.92
19196;BMP280;9730;48.926;11.376;2023-04-09T06:22:40;97579.41;;;3.06
19196;BMP280;9730;48.926;11.376;2023-04-09T06:25:08;97588.91;;;3.35
19196;BMP280;9730;48.926;11.376;2023-04-09T06:27:36;97628.13;;;3.26
19196;BMP280;9730;48.926;11.376;2023-04-09T06:30:04;97640.34;;;3.41
19196;BMP280;9730;48.926;11.376;2023-04-09T06:32:32;97658.53;;;3.49
19196;BMP280;9730;48.926;11.376;2023-04-09T06:35:06;97679.09;;;3.60
19196;BMP280;9730;48.926;11.376;2023-04-09T06:37:37;97706.88;;;3.39
19196;BMP280;9730;48.926;11.376;2023-04-09T06:40:05;97704.38;;;2.82
19196;BMP280;9730;48.926;11.376;2023-04-09T06:42:33;97699.38;;;2.82
19196;BMP280;9730;48.926;11.376;2023-04-09T06:45:13;97682.31;;;3.15
19196;BMP280;9730;48.926;11.376;2023-04-09T06:47:41;97698.50;;;3.43
19196;BMP280;9730;48.926;11.376;2023-04-09T06:50:09;97711.66;;;3.52
19196;BMP280;9730;48.926;11.376;2023-04-09T06:52:38;97736.22;;;3.74
19196;BMP280;9730;48.926;11.376;2023-04-09T06:55:05;97759.94;;;3.99
19196;BMP280;9730;48.926;11.376;2023-04-09T06:57:33;97758.09;;;4.10
19196;BMP280;9730;48.926;11.376;2023-04-09T07:00:01;97799.25;;;3.87
19196;BMP280;9730;48.926;11.376;2023-04-09T07:02:28;97790.84;;;3.92
19196;BMP280;9730;48.926;11.376;2023-04-09T07:04:56;97813.50;;;3.82
19196;BMP280;9730;48.926;11.376;2023-04-09T07:07:24;97824.81;;;4.50
19196;BMP280;9730;48.926;11.376;2023-04-09T07:09:52;97852.84;;;5.11
19196;BMP280;9730;48.926;11.376;2023-04-09T07:12:26;97896.06;;;5.98
19196;BMP280;9730;48.926;11.376;2023-04-09T07:14:56;97944.25;;;6.79
19196;BMP280;9730;48.926;11.376;2023-04-09T07:17:23;98009.13;;;6.90
19196;BMP280;9730;48.926;11.376;2023-04-09T07:19:51;98039.06;;;7.63
19196;BMP280;9730;48.926;11.376;2023-04-09T07:22:19;98083.53;;;9.04
19196;BMP280;9730;48.926;11.376;2023-04-09T07:24:47;98098.97;;;9.20
19196;BMP280;9730;48.926;11.376;2023-04-09T07:27:20;98093.06;;;10.19
19196;BMP280;9730;48.926;11.376;2023-04-09T07:29:47;98068.28;;;10.96
19196;BMP280;9730;48.926;11.376;2023-04-09T07:32:15;98007.44;;;11.43
19196;BMP280;9730;48.926;11.376;2023-04-09T07:34:42;97954.38;;;12.71
19196;BMP280;9730;48.926;11.376;2023-04-09T07:37:10;97893.25;;;12.45
19196;BMP280;9730;48.926;11.376;2023-04-09T07:39:38;97866.91;;;12.99
19196;BMP280;9730;48.926;11.376;2023-04-09T07:42:05;97820.06;;;13.55
19196;BMP280;9730;48.926;11.376;2023-04-09T07:44:34;97746.13;;;14.09
19196;BMP280;9730;48.926;11.376;2023-04-09T07:47:02;97705.69;;;14.63
19196;BMP280;9730;48.926;11.376;2023-04-09T07:49:30;97680.66;;;14.98
19196;BMP280;9730;48.926;11.376;2023-04-09T07:51:57;97674.53;;;15.01
19196;BMP280;9730;48.926;11.376;2023-04-09T07:54:25;97641.75;;;14.84
19196;BMP280;9730;48.926;11.376;2023-04-09T07:56:53;97708.63;;;13.08
19196;BMP280;9730;48.926;11.376;2023-04-09T07:59:21;97720.06;;;13.15
19196;BMP280;9730;48.926;11.376;2023-04-09T08:01:50;97689.09;;;14.43
19196;BMP280;9730;48.926;11.376;2023-04-09T08:04:18;97656.09;;;16.29
19196;BMP280;9730;48.926;11.376;2023-04-09T08:06:47;97605.31;;;17.47
19196;BMP280;9730;48.926;11.376;2023-04-09T08:09:16;97571.59;;;15.99
19196;BMP280;9730;48.926;11.376;2023-04-09T08:11:45;97583.47;;;15.86
19196;BMP280;9730;48.926;11.376;2023-04-09T08:14:13;97655.91;;;14.46
19196;BMP280;9730;48.926;11.376;2023-04-09T08:16:41;97671.84;;;14.62
19196;BMP280;9730;48.926;11.376;2023-04-09T08:19:11;97696.44;;;15.70
19196;BMP280;9730;48.926;11.376;2023-04-09T08:21:40;97628.88;;;14.73
19196;BMP280;9730;48.926;11.376;2023-04-09T08:24:09;97625.53;;;14.73
19196;BMP280;9730;48.926;11.376;2023-04-09T08:26:37;97583.28;;;16.51
19196;BMP280;9730;48.926;11.376;2023-04-09T08:29:04;97563.28;;;15.46
19196;BMP280;9730;48.926;11.376;2023-04-09T08:31:32;97603.59;;;14.72
19196;BMP280;9730;48.926;11.376;2023-04-09T08:34:00;97570.38;;;14.21
19196;BMP280;9730;48.926;11.376;2023-04-09T08:36:29;97556.63;;;12.94
19196;BMP280;9730;48.926;11.376;2023-04-09T08:38:56;97537.19;;;14.24
19196;BMP280;9730;48.926;11.376;2023-04-09T08:41:26;97506.34;;;16.23
19196;BMP280;9730;48.926;11.376;2023-04-09T08:43:55;97514.72;;;14.98
19196;BMP280;9730;48.926;11.376;2023-04-09T08:46:23;97510.38;;;15.00
19196;BMP280;9730;48.926;11.376;2023-04-09T08:48:51;97495.56;;;16.07
19196;BMP280;9730;48.926;11.376;2023-04-09T08:51:19;97452.63;;;16.97
19196;BMP280;9730;48.926;11.376;2023-04-09T08:53:48;97391.59;;;17.73
19196;BMP280;9730;48.926;11.376;2023-04-09T08:56:18;97439.50;;;15.96
19196;BMP280;9730;48.926;11.376;2023-04-09T08:58:47;97441.13;;;15.97
19196;BMP280;9730;48.926;11.376;2023-04-09T09:01:18;97401.53;;;16.64
19196;BMP280;9730;48.926;11.376;2023-04-09T09:03:56;97362.31;;;17.01
19196;BMP280;9730;48.926;11.376;2023-04-09T09:06:24;97429.47;;;14.55
19196;BMP280;9730;48.926;11.376;2023-04-09T09:09:02;97466.53;;;13.90
19196;BMP280;9730;48.926;11.376;2023-04-09T09:11:29;97420.81;;;15.85
19196;BMP280;9730;48.926;11.376;2023-04-09T09:13:57;97391.69;;;16.60
19196;BMP280;9730;48.926;11.376;2023-04-09T09:16:25;97414.75;;;17.38
19196;BMP280;9730;48.926;11.376;2023-04-09T09:18:52;97336.78;;;17.46
19196;BMP280;9730;48.926;11.376;2023-04-09T09:21:22;97320.66;;;16.79
19196;BMP280;9730;48.926;11.376;2023-04-09T09:23:49;97401.06;;;16.00
19196;BMP280;9730;48.926;11.376;2023-04-09T09:26:19;97373.28;;;17.79
19196;BMP280;9730;48.926;11.376;2023-04-09T09:28:47;97386.31;;;18.71
19196;BMP280;9730;48.926;11.376;2023-04-09T09:31:15;97401.97;;;15.99
19196;BMP280;9730;48.926;11.376;2023-04-09T09:33:42;97431.19;;;16.65
19196;BMP280;9730;48.926;11.376;2023-04-09T09:36:10;97393.34;;;19.10
19196;BMP280;9730;48.926;11.376;2023-04-09T09:38:50;97319.09;;;19.80
19196;BMP280;9730;48.926;11.376;2023-04-09T09:41:20;97366.56;;;18.94
19196;BMP280;9730;48.926;11.376;2023-04-09T09:43:48;97366.88;;;18.17
19196;BMP280;9730;48.926;11.376;2023-04-09T09:46:16;97374.91;;;17.48
19196;BMP280;9730;48.926;11.376;2023-04-09T09:48:43;97442.81;;;14.97
19196;BMP280;9730;48.926;11.376;2023-04-09T09:51:12;97520.53;;;14.20
19196;BMP280;9730;48.926;11.376;2023-04-09T09:53:42;97508.56;;;14.76
19196;BMP280;9730;48.926;11.376;2023-04-09T09:56:11;97451.13;;;14.61
19196;BMP280;9730;48.926;11.376;2023-04-09T09:58:43;97407.13;;;17.59
19196;BMP280;9730;48.926;11.376;2023-04-09T10:01:11;97307.91;;;17.67
19196;BMP280;9730;48.926;11.376;2023-04-09T10:03:39;97370.41;;;18.37
19196;BMP280;9730;48.926;11.376;2023-04-09T10:06:09;97346.63;;;17.72
19196;BMP280;9730;48.926;11.376;2023-04-09T10:08:37;97377.47;;;17.58
19196;BMP280;9730;48.926;11.376;2023-04-09T10:11:07;97340.09;;;15.63
19196;BMP280;9730;48.926;11.376;2023-04-09T10:13:36;97403.66;;;17.04
19196;BMP280;9730;48.926;11.376;2023-04-09T10:16:06;97337.38;;;19.67
19196;BMP280;9730;48.926;11.376;2023-04-09T10:18:34;97295.47;;;16.18
19196;BMP280;9730;48.926;11.376;2023-04-09T10:21:04;97342.22;;;13.37
19196;BMP280;9730;48.926;11.376;2023-04-09T10:23:37;97430.19;;;12.62
19196;BMP280;9730;48.926;11.376;2023-04-09T10:26:04;97526.72;;;12.54
19196;BMP280;9730;48.926;11.376;2023-04-09T10:28:32;97546.94;;;12.86
19196;BMP280;9730;48.926;11.376;2023-04-09T10:31:00;97523.38;;;13.58
19196;BMP280;9730;48.926;11.376;2023-04-09T10:33:29;97510.28;;;14.07
19196;BMP280;9730;48.926;11.376;2023-04-09T10:35:58;97507.50;;;13.84
19196;BMP280;9730;48.926;11.376;2023-04-09T10:38:31;97511.19;;;13.79
19196;BMP280;9730;48.926;11.376;2023-04-09T10:40:59;97498.44;;;13.94
19196;BMP280;9730;48.926;11.376;2023-04-09T10:43:32;97464.66;;;15.39
19196;BMP280;9730;48.926;11.376;2023-04-09T10:46:02;97486.69;;;14.99
19196;BMP280;9730;48.926;11.376;2023-04-09T10:48:33;97494.81;;;13.84
19196;BMP280;9730;48.926;11.376;2023-04-09T10:51:01;97466.66;;;14.95
19196;BMP280;9730;48.926;11.376;2023-04-09T10:53:29;97411.03;;;14.66
19196;BMP280;9730;48.926;11.376;2023-04-09T10:55:58;97497.84;;;13.61
19196;BMP280;9730;48.926;11.376;2023-04-09T10:58:26;97504.47;;;14.47
19196;BMP280;9730;48.926;11.376;2023-04-09T11:00:53;97411.94;;;15.16
19196;BMP280;9730;48.926;11.376;2023-04-09T11:03:23;97343.44;;;14.38
19196;BMP280;9730;48.926;11.376;2023-04-09T11:05:52;97441.47;;;13.85
19196;BMP280;9730;48.926;11.376;2023-04-09T11:08:20;97453.66;;;14.34
19196;BMP280;9730;48.926;11.376;2023-04-09T11:10:48;97432.94;;;14.00
19196;BMP280;9730;48.926;11.376;2023-04-09T11:13:17;97450.63;;;13.17
19196;BMP280;9730;48.926;11.376;2023-04-09T11:15:46;97483.13;;;13.95
19196;BMP280;9730;48.926;11.376;2023-04-09T11:18:14;97480.88;;;13.77
19196;BMP280;9730;48.926;11.376;2023-04-09T11:20:42;97396.91;;;14.62
19196;BMP280;9730;48.926;11.376;2023-04-09T11:23:11;97414.91;;;14.19
19196;BMP280;9730;48.926;11.376;2023-04-09T11:25:39;97404.63;;;14.99
19196;BMP280;9730;48.926;11.376;2023-04-09T11:28:07;97375.13;;;14.45
19196;BMP280;9730;48.926;11.376;2023-04-09T11:30:34;97380.66;;;15.15
19196;BMP280;9730;48.926;11.376;2023-04-09T11:33:02;97369.28;;;14.96
19196;BMP280;9730;48.926;11.376;2023-04-09T11:35:32;97384.88;;;15.29
19196;BMP280;9730;48.926;11.376;2023-04-09T11:38:00;97356.97;;;16.59
19196;BMP280;9730;48.926;11.376;2023-04-09T11:40:28;97328.19;;;15.64
19196;BMP280;9730;48.926;11.376;2023-04-09T11:42:56;97350.28;;;15.01
19196;BMP280;9730;48.926;11.376;2023-04-09T11:45:24;97391.34;;;14.43
19196;BMP280;9730;48.926;11.376;2023-04-09T11:47:52;97350.66;;;14.83
19196;BMP280;9730;48.926;11.376;2023-04-09T11:50:20;97383.63;;;14.58
19196;BMP280;9730;48.926;11.376;2023-04-09T11:52:47;97370.81;;;14.98
19196;BMP280;9730;48.926;11.376;2023-04-09T11:55:22;97404.38;;;14.77
19196;BMP280;9730;48.926;11.376;2023-04-09T11:57:52;97402.34;;;15.21
19196;BMP280;9730;48.926;11.376;2023-04-09T12:00:20;97382.44;;;14.88
19196;BMP280;9730;48.926;11.376;2023-04-09T12:02:50;97393.94;;;14.94
19196;BMP280;9730;48.926;11.376;2023-04-09T12:05:25;97408.41;;;14.67
19196;BMP280;9730;48.926;11.376;2023-04-09T12:07:56;97404.63;;;14.34
19196;BMP280;9730;48.926;11.376;2023-04-09T12:10:25;97459.84;;;13.89
19196;BMP280;9730;48.926;11.376;2023-04-09T12:12:59;97474.53;;;13.98
19196;BMP280;9730;48.926;11.376;2023-04-09T12:15:29;97484.47;;;13.59
19196;BMP280;9730;48.926;11.376;2023-04-09T12:17:57;97531.41;;;14.35
19196;BMP280;9730;48.926;11.376;2023-04-09T12:20:25;97488.91;;;14.25
19196;BMP280;9730;48.926;11.376;2023-04-09T12:22:53;97480.09;;;14.31
19196;BMP280;9730;48.926;11.376;2023-04-09T12:25:20;97472.56;;;14.69
19196;BMP280;9730;48.926;11.376;2023-04-09T12:27:48;97488.97;;;14.78
19196;BMP280;9730;48.926;11.376;2023-04-09T12:30:17;97463.25;;;14.70
19196;BMP280;9730;48.926;11.376;2023-04-09T12:32:44;97469.13;;;15.72
19196;BMP280;9730;48.926;11.376;2023-04-09T12:35:12;97468.72;;;15.91
19196;BMP280;9730;48.926;11.376;2023-04-09T12:37:40;97448.00;;;15.35
19196;BMP280;9730;48.926;11.376;2023-04-09T12:40:08;97437.56;;;15.13
19196;BMP280;9730;48.926;11.376;2023-04-09T12:42:39;97430.19;;;15.35
19196;BMP280;9730;48.926;11.376;2023-04-09T12:45:07;97437.84;;;13.76
19196;BMP280;9730;48.926;11.376;2023-04-09T12:47:37;97508.75;;;13.05
19196;BMP280;9730;48.926;11.376;2023-04-09T12:50:06;97528.13;;;14.20
19196;BMP280;9730;48.926;11.376;2023-04-09T12:52:34;97492.91;;;14.15
19196;BMP280;9730;48.926;11.376;2023-04-09T12:55:02;97502.19;;;14.83
19196;BMP280;9730;48.926;11.376;2023-04-09T12:57:29;97486.44;;;14.78
19196;BMP280;9730;48.926;11.376;2023-04-09T12:59:57;97514.38;;;14.10
19196;BMP280;9730;48.926;11.376;2023-04-09T13:02:25;97552.72;;;14.73
19196;BMP280;9730;48.926;11.376;2023-04-09T13:04:54;97526.53;;;14.19
19196;BMP280;9730;48.926;11.376;2023-04-09T13:07:21;97547.25;;;14.11
19196;BMP280;9730;48.926;11.376;2023-04-09T13:09:51;97560.13;;;14.22
19196;BMP280;9730;48.926;11.376;2023-04-09T13:12:18;97578.81;;;13.92
19196;BMP280;9730;48.926;11.376;2023-04-09T13:14:46;97581.91;;;13.83
19196;BMP280;9730;48.926;11.376;2023-04-09T13:17:14;97567.31;;;14.16
19196;BMP280;9730;48.926;11.376;2023-04-09T13:19:42;97574.34;;;14.11
19196;BMP280;9730;48.926;11.376;2023-04-09T13:22:11;97555.47;;;14.01
19196;BMP280;9730;48.926;11.376;2023-04-09T13:24:38;97554.81;;;13.97
19196;BMP280;9730;48.926;11.376;2023-04-09T13:27:06;97551.72;;;14.76
19196;BMP280;9730;48.926;11.376;2023-04-09T13:29:34;97543.91;;;15.05
19196;BMP280;9730;48.926;11.376;2023-04-09T13:32:02;97550.97;;;14.88
19196;BMP280;9730;48.926;11.376;2023-04-09T13:34:32;97545.34;;;14.42
19196;BMP280;9730;48.926;11.376;2023-04-09T13:37:00;97534.78;;;14.62
19196;BMP280;9730;48.926;11.376;2023-04-09T13:39:29;97484.75;;;14.90
19196;BMP280;9730;48.926;11.376;2023-04-09T13:41:57;97500.22;;;14.20
19196;BMP280;9730;48.926;11.376;2023-04-09T13:44:24;97497.63;;;14.07
19196;BMP280;9730;48.926;11.376;2023-04-09T13:46:52;97514.13;;;13.43
19196;BMP280;9730;48.926;11.376;2023-04-09T13:49:20;97540.44;;;13.41
19196;BMP280;9730;48.926;11.376;2023-04-09T13:51:48;97540.03;;;13.62
19196;BMP280;9730;48.926;11.376;2023-04-09T13:54:15;97555.53;;;13.42
19196;BMP280;9730;48.926;11.376;2023-04-09T13:56:44;97536.97;;;13.71
19196;BMP280;9730;48.926;11.376;2023-04-09T13:59:12;97551.75;;;13.79
19196;BMP280;9730;48.926;11.376;2023-04-09T14:01:39;97555.00;;;13.94
19196;BMP280;9730;48.926;11.376;2023-04-09T14:04:07;97553.03;;;13.85
19196;BMP280;9730;48.926;11.376;2023-04-09T14:06:34;97539.28;;;13.89
19196;BMP280;9730;48.926;11.376;2023-04-09T14:09:02;97552.59;;;14.21
19196;BMP280;9730;48.926;11.376;2023-04-09T14:11:29;97560.38;;;14.04
19196;BMP280;9730;48.926;11.376;2023-04-09T14:13:58;97555.53;;;13.72
19196;BMP280;9730;48.926;11.376;2023-04-09T14:16:26;97549.53;;;13.29
19196;BMP280;9730;48.926;11.376;2023-04-09T14:18:55;97571.63;;;13.27
19196;BMP280;9730;48.926;11.376;2023-04-09T14:21:23;97573.00;;;13.33
19196;BMP280;9730;48.926;11.376;2023-04-09T14:23:52;97579.59;;;13.35
19196;BMP280;9730;48.926;11.376;2023-04-09T14:26:19;97565.47;;;13.61
19196;BMP280;9730;48.926;11.376;2023-04-09T14:28:49;97550.09;;;13.64